Terminal Aerodrome Forecast
Issued by NWS Wilmington, OH

Current Version | Previous Version | Graphics & Text | Print | Product List | Glossary On
Versions: 1 2 3 4 5 6 7 8 9 10 11 12 13
085
FTUS41 KILN 191739
TAFDAY
TAF
KDAY 191739Z 1918/2018 26011KT P6SM SCT040
     FM192300 31005KT P6SM FEW130
     FM200900 VRB02KT 5SM BR FEW250
     FM201300 18004KT P6SM FEW070=

USA.gov is the U.S. government's official web portal to all federal, state and local government web resources and services.